createdAt,value
2018-02-20T00:00:04.982Z,1005.57
2018-02-20T00:01:19.258Z,1005.59
2018-02-20T00:02:33.517Z,1005.56
2018-02-20T00:03:47.755Z,1005.58
2018-02-20T00:05:02.517Z,1005.59
2018-02-20T00:06:16.424Z,1005.6
2018-02-20T00:07:30.521Z,1005.63
2018-02-20T00:08:44.834Z,1005.6
2018-02-20T00:09:58.980Z,1005.59
2018-02-20T00:11:13.004Z,1005.61
2018-02-20T00:12:27.318Z,1005.61
2018-02-20T00:13:41.632Z,1005.58
2018-02-20T00:14:56.036Z,1005.59
2018-02-20T00:16:09.821Z,1005.56
2018-02-20T00:17:23.964Z,1005.58
2018-02-20T00:18:38.230Z,1005.59
2018-02-20T00:19:52.522Z,1005.59
2018-02-20T00:21:06.562Z,1005.54
2018-02-20T00:22:20.960Z,1005.57
2018-02-20T00:23:35.237Z,1005.57
2018-02-20T00:24:49.727Z,1005.56
2018-02-20T00:26:03.968Z,1005.54
2018-02-20T00:27:17.517Z,1005.53
2018-02-20T00:28:31.783Z,1005.52
2018-02-20T00:29:46.336Z,1005.54
2018-02-20T00:31:00.599Z,1005.54
2018-02-20T00:32:14.834Z,1005.56
2018-02-20T00:33:28.922Z,1005.54
2018-02-20T00:34:43.819Z,1005.59
2018-02-20T00:35:58.172Z,1005.49
2018-02-20T00:37:12.693Z,1005.5
2018-02-20T00:38:27.033Z,1005.5
2018-02-20T00:39:41.333Z,1005.5
2018-02-20T00:40:56.060Z,1005.48
2018-02-20T00:42:10.578Z,1005.47
2018-02-20T00:43:24.853Z,1005.46
2018-02-20T00:44:38.851Z,1005.46
2018-02-20T00:45:52.875Z,1005.47
2018-02-20T00:47:07.421Z,1005.43
2018-02-20T00:48:21.915Z,1005.47
2018-02-20T00:49:35.970Z,1005.46
2018-02-20T00:50:50.152Z,1005.44
2018-02-20T00:52:04.185Z,1005.4
2018-02-20T00:53:17.940Z,1005.42
2018-02-20T00:54:32.458Z,1005.41
2018-02-20T00:55:46.727Z,1005.39
2018-02-20T00:57:00.994Z,1005.37
2018-02-20T00:58:15.293Z,1005.36
2018-02-20T00:59:29.316Z,1005.38
2018-02-20T01:00:43.324Z,1005.37
2018-02-20T01:01:57.346Z,1005.36
2018-02-20T01:03:11.633Z,1005.35
2018-02-20T01:04:25.859Z,1005.35
2018-02-20T01:05:39.366Z,1005.31
2018-02-20T01:06:53.625Z,1005.29
2018-02-20T01:08:07.412Z,1005.31
2018-02-20T01:09:21.916Z,1005.32
2018-02-20T01:10:36.170Z,1005.3
2018-02-20T01:11:50.449Z,1005.29
2018-02-20T01:13:04.940Z,1005.27
2018-02-20T01:14:19.701Z,1005.25
2018-02-20T01:15:34.410Z,1005.25
2018-02-20T01:16:48.896Z,1005.23
2018-02-20T01:18:03.148Z,1005.24
2018-02-20T01:19:16.657Z,1005.28
2018-02-20T01:20:30.445Z,1005.29
2018-02-20T01:21:44.446Z,1005.31
2018-02-20T01:22:58.730Z,1005.3
2018-02-20T01:24:13.343Z,1005.28
2018-02-20T01:25:27.564Z,1005.31
2018-02-20T01:26:41.570Z,1005.29
2018-02-20T01:27:55.075Z,1005.24
2018-02-20T01:29:09.115Z,1005.23
2018-02-20T01:30:23.610Z,1005.23
2018-02-20T01:31:37.341Z,1005.2
2018-02-20T01:32:51.321Z,1005.19
2018-02-20T01:34:05.578Z,1005.18
2018-02-20T01:35:19.324Z,1005.17
2018-02-20T01:36:33.343Z,1005.17
2018-02-20T01:37:48.063Z,1005.12
2018-02-20T01:39:02.307Z,1005.14
2018-02-20T01:40:15.828Z,1005.1
2018-02-20T01:41:29.618Z,1005.11
2018-02-20T01:42:44.130Z,1005.09
2018-02-20T01:43:58.119Z,1005.08
2018-02-20T01:45:12.331Z,1005.08
2018-02-20T01:46:26.833Z,1005.08
2018-02-20T01:47:41.324Z,1005.06
2018-02-20T01:48:55.326Z,1005.07
2018-02-20T01:50:10.038Z,1005.06
2018-02-20T01:51:24.035Z,1005.11
2018-02-20T01:52:38.036Z,1005.07
2018-02-20T01:53:52.788Z,1005.1
2018-02-20T01:55:06.751Z,1005.08
2018-02-20T01:56:21.013Z,1005.1
2018-02-20T01:57:35.604Z,1005.1
2018-02-20T01:58:49.594Z,1005.07
2018-02-20T02:00:03.852Z,1005.08
2018-02-20T02:01:18.107Z,1005.07
2018-02-20T02:02:32.346Z,1005.06
2018-02-20T02:03:46.316Z,1005.08
2018-02-20T02:05:00.293Z,1005.09
2018-02-20T02:06:15.055Z,1005.04
2018-02-20T02:07:28.561Z,1005.11
2018-02-20T02:08:43.024Z,1005.03
2018-02-20T02:09:57.749Z,1005.08
2018-02-20T02:11:11.966Z,1005.1
2018-02-20T02:12:26.452Z,1005.1
2018-02-20T02:13:40.691Z,1005.11
2018-02-20T02:14:54.931Z,1005.09
2018-02-20T02:16:09.187Z,1005.09
2018-02-20T02:17:23.439Z,1005.11
2018-02-20T02:18:37.929Z,1005.12
2018-02-20T02:19:52.731Z,1005.13
2018-02-20T02:21:07.256Z,1005.12
2018-02-20T02:22:21.736Z,1005.13
2018-02-20T02:23:35.945Z,1005.15
2018-02-20T02:25:05.260Z,1005.16
2018-02-20T02:26:19.777Z,1005.15
2018-02-20T02:27:33.294Z,1005.15
2018-02-20T02:28:47.584Z,1005.2
2018-02-20T02:30:01.481Z,1005.12
2018-02-20T02:31:16.227Z,1005.17
2018-02-20T02:32:30.730Z,1005.13
2018-02-20T02:33:45.216Z,1005.14
2018-02-20T02:34:58.977Z,1005.18
2018-02-20T02:36:13.255Z,1005.18
2018-02-20T02:37:27.750Z,1005.14
2018-02-20T02:38:42.478Z,1005.19
2018-02-20T02:39:56.975Z,1005.2
2018-02-20T02:41:10.973Z,1005.14
2018-02-20T02:42:25.482Z,1005.15
2018-02-20T02:43:40.192Z,1005.19
2018-02-20T02:44:54.174Z,1005.15
2018-02-20T02:46:08.164Z,1005.14
2018-02-20T02:47:22.632Z,1005.16
2018-02-20T02:48:37.120Z,1005.12
2018-02-20T02:49:51.122Z,1005.11
2018-02-20T02:51:05.409Z,1005.11
2018-02-20T02:52:19.155Z,1005.14
2018-02-20T02:53:33.871Z,1005.17
2018-02-20T02:54:47.610Z,1005.1
2018-02-20T02:56:02.115Z,1005.12
2018-02-20T02:57:16.375Z,1005.14
2018-02-20T02:58:30.881Z,1005.14
2018-02-20T02:59:45.682Z,1005.11
2018-02-20T03:00:59.667Z,1005.05
2018-02-20T03:02:14.180Z,1005.05
2018-02-20T03:03:28.027Z,1004.99
2018-02-20T03:04:42.023Z,1004.98
2018-02-20T03:05:56.543Z,1005.02
2018-02-20T03:07:11.069Z,1004.98
2018-02-20T03:08:25.890Z,1004.97
2018-02-20T03:09:40.628Z,1005.01
2018-02-20T03:10:54.647Z,1005.01
2018-02-20T03:12:08.903Z,1005.04
2018-02-20T03:13:23.384Z,1005.02
2018-02-20T03:14:37.607Z,1005
2018-02-20T03:15:51.644Z,1005.07
2018-02-20T03:17:05.881Z,1005.03
2018-02-20T03:18:20.110Z,1005.03
2018-02-20T03:19:34.596Z,1005.08
2018-02-20T03:20:49.071Z,1005.07
2018-02-20T03:22:03.551Z,1005.08
2018-02-20T03:23:18.056Z,1005.03
2018-02-20T03:24:32.527Z,1005.04
2018-02-20T03:25:46.514Z,1005.04
2018-02-20T03:27:00.255Z,1005.05
2018-02-20T03:28:14.256Z,1005.02
2018-02-20T03:29:28.738Z,1005.03
2018-02-20T03:30:42.483Z,1005.06
2018-02-20T03:31:56.240Z,1005.09
2018-02-20T03:33:09.968Z,1005.1
2018-02-20T03:34:23.953Z,1005.09
2018-02-20T03:35:38.416Z,1005.09
2018-02-20T03:36:52.260Z,1005.07
2018-02-20T03:38:06.242Z,1005.08
2018-02-20T03:39:20.498Z,1005.04
2018-02-20T03:40:34.494Z,1005.07
2018-02-20T03:41:48.250Z,1005.02
2018-02-20T03:43:02.719Z,1005.04
2018-02-20T03:44:17.013Z,1005.05
2018-02-20T03:45:31.509Z,1005.03
2018-02-20T03:46:45.746Z,1005.09
2018-02-20T03:48:00.459Z,1005.11
2018-02-20T03:49:14.463Z,1005.1
2018-02-20T03:50:28.706Z,1005.11
2018-02-20T03:51:42.975Z,1005.12
2018-02-20T03:52:57.444Z,1005.1
2018-02-20T03:54:11.454Z,1005.13
2018-02-20T03:55:25.940Z,1005.13
2018-02-20T03:56:40.453Z,1005.05
2018-02-20T03:57:54.686Z,1005.07
2018-02-20T03:59:08.677Z,1005.11
2018-02-20T04:00:22.730Z,1005.15
2018-02-20T04:01:36.986Z,1005.11
2018-02-20T04:02:51.241Z,1005.14
2018-02-20T04:04:05.775Z,1005.11
2018-02-20T04:05:20.518Z,1005.1
2018-02-20T04:06:34.288Z,1005.14
2018-02-20T04:07:47.552Z,1005.12
2018-02-20T04:09:01.811Z,1005.1
2018-02-20T04:10:16.416Z,1005.12
2018-02-20T04:11:30.438Z,1005.07
2018-02-20T04:12:45.198Z,1005.1
2018-02-20T04:13:59.725Z,1005.05
2018-02-20T04:15:13.983Z,1005.06
2018-02-20T04:16:28.462Z,1005.09
2018-02-20T04:17:42.460Z,1005.11
2018-02-20T04:18:56.473Z,1005.15
2018-02-20T04:20:10.964Z,1005.14
2018-02-20T04:21:24.701Z,1005.12
2018-02-20T04:22:38.972Z,1005.14
2018-02-20T04:23:53.535Z,1005.08
2018-02-20T04:25:08.009Z,1005.13
2018-02-20T04:26:22.009Z,1005.12
2018-02-20T04:27:36.280Z,1005.14
2018-02-20T04:28:50.811Z,1005.13
2018-02-20T04:30:04.816Z,1005.11
2018-02-20T04:31:19.340Z,1005.13
2018-02-20T04:32:34.028Z,1005.13
2018-02-20T04:33:48.949Z,1005.15
2018-02-20T04:35:03.066Z,1005.2
2018-02-20T04:36:17.590Z,1005.24
2018-02-20T04:37:31.852Z,1005.23
2018-02-20T04:38:46.784Z,1005.28
2018-02-20T04:40:01.375Z,1005.25
2018-02-20T04:41:15.603Z,1005.27
2018-02-20T04:42:29.622Z,1005.2
2018-02-20T04:43:43.242Z,1005.24
2018-02-20T04:44:57.381Z,1005.24
2018-02-20T04:46:11.390Z,1005.22
2018-02-20T04:47:25.190Z,1005.28
2018-02-20T04:48:39.459Z,1005.25
2018-02-20T04:49:53.452Z,1005.25
2018-02-20T04:51:07.492Z,1005.24
2018-02-20T04:52:21.277Z,1005.27
2018-02-20T04:53:35.314Z,1005.26
2018-02-20T04:54:49.790Z,1005.29
2018-02-20T04:56:03.825Z,1005.24
2018-02-20T04:57:18.339Z,1005.24
2018-02-20T04:58:32.392Z,1005.22
2018-02-20T04:59:46.916Z,1005.26
2018-02-20T05:01:01.205Z,1005.25
2018-02-20T05:02:15.533Z,1005.17
2018-02-20T05:03:29.842Z,1005.21
2018-02-20T05:04:44.105Z,1005.2
2018-02-20T05:05:58.371Z,1005.2
2018-02-20T05:07:12.663Z,1005.2
2018-02-20T05:08:26.977Z,1005.16
2018-02-20T05:09:40.998Z,1005.19
2018-02-20T05:10:55.110Z,1005.19
2018-02-20T05:12:09.460Z,1005.15
2018-02-20T05:13:23.505Z,1005.16
2018-02-20T05:14:37.305Z,1005.15
2018-02-20T05:15:50.839Z,1005.19
2018-02-20T05:17:04.976Z,1005.16
2018-02-20T05:18:18.966Z,1005.18
2018-02-20T05:19:33.191Z,1005.18
2018-02-20T05:20:47.941Z,1005.21
2018-02-20T05:22:01.709Z,1005.23
2018-02-20T05:23:16.091Z,1005.2
2018-02-20T05:24:30.572Z,1005.27
2018-02-20T05:25:44.339Z,1005.3
2018-02-20T05:26:59.060Z,1005.32
2018-02-20T05:28:13.296Z,1005.32
2018-02-20T05:29:27.774Z,1005.32
2018-02-20T05:30:41.771Z,1005.28
2018-02-20T05:31:55.771Z,1005.33
2018-02-20T05:33:10.475Z,1005.38
2018-02-20T05:34:24.755Z,1005.32
2018-02-20T05:35:38.984Z,1005.27
2018-02-20T05:36:52.973Z,1005.33
2018-02-20T05:38:07.482Z,1005.29
2018-02-20T05:39:21.963Z,1005.33
2018-02-20T05:40:36.219Z,1005.34
2018-02-20T05:41:50.451Z,1005.35
2018-02-20T05:43:04.433Z,1005.35
2018-02-20T05:44:18.913Z,1005.36
2018-02-20T05:45:33.164Z,1005.39
2018-02-20T05:46:47.385Z,1005.35
2018-02-20T05:48:01.360Z,1005.39
2018-02-20T05:49:15.611Z,1005.36
2018-02-20T05:50:30.198Z,1005.36
2018-02-20T05:51:43.776Z,1005.37
2018-02-20T05:52:58.263Z,1005.4
2018-02-20T05:54:12.280Z,1005.48
2018-02-20T05:55:26.311Z,1005.39
2018-02-20T05:56:41.056Z,1005.45
2018-02-20T05:57:55.358Z,1005.49
2018-02-20T05:59:09.639Z,1005.43
2018-02-20T06:00:23.661Z,1005.47
2018-02-20T06:01:37.670Z,1005.52
2018-02-20T06:02:51.658Z,1005.44
2018-02-20T06:04:05.897Z,1005.52
2018-02-20T06:05:20.193Z,1005.45
2018-02-20T06:06:34.694Z,1005.5
2018-02-20T06:07:49.164Z,1005.48
2018-02-20T06:09:03.668Z,1005.51
2018-02-20T06:10:18.174Z,1005.57
2018-02-20T06:11:32.495Z,1005.53
2018-02-20T06:12:46.558Z,1005.55
2018-02-20T06:14:01.287Z,1005.55
2018-02-20T06:15:15.557Z,1005.52
2018-02-20T06:16:30.346Z,1005.56
2018-02-20T06:17:45.088Z,1005.59
2018-02-20T06:18:59.828Z,1005.6
2018-02-20T06:20:13.868Z,1005.55
2018-02-20T06:21:28.385Z,1005.57
2018-02-20T06:22:42.900Z,1005.61
2018-02-20T06:23:57.316Z,1005.61
2018-02-20T06:25:11.622Z,1005.65
2018-02-20T06:26:25.905Z,1005.54
2018-02-20T06:27:39.951Z,1005.68
2018-02-20T06:28:53.944Z,1005.66
2018-02-20T06:30:08.442Z,1005.69
2018-02-20T06:31:22.722Z,1005.58
2018-02-20T06:32:36.731Z,1005.59
2018-02-20T06:33:50.743Z,1005.55
2018-02-20T06:35:05.288Z,1005.54
2018-02-20T06:36:19.314Z,1005.64
2018-02-20T06:37:33.652Z,1005.6
2018-02-20T06:38:47.754Z,1005.62
2018-02-20T06:40:02.143Z,1005.57
2018-02-20T06:41:16.673Z,1005.61
2018-02-20T06:42:30.953Z,1005.65
2018-02-20T06:43:44.945Z,1005.6
2018-02-20T06:44:59.702Z,1005.59
2018-02-20T06:46:14.264Z,1005.64
2018-02-20T06:47:28.528Z,1005.64
2018-02-20T06:48:42.545Z,1005.61
2018-02-20T06:49:57.056Z,1005.61
2018-02-20T06:51:11.091Z,1005.66
2018-02-20T06:52:25.613Z,1005.68
2018-02-20T06:53:40.158Z,1005.62
2018-02-20T06:54:54.449Z,1005.63
2018-02-20T06:56:08.717Z,1005.66
2018-02-20T06:57:22.333Z,1005.67
2018-02-20T06:58:36.922Z,1005.62
2018-02-20T06:59:51.181Z,1005.58
2018-02-20T07:01:04.707Z,1005.64
2018-02-20T07:02:19.219Z,1005.64
2018-02-20T07:03:32.968Z,1005.64
2018-02-20T07:04:47.723Z,1005.64
2018-02-20T07:06:01.961Z,1005.64
2018-02-20T07:07:16.220Z,1005.71
2018-02-20T07:08:30.489Z,1005.64
2018-02-20T07:09:44.972Z,1005.76
2018-02-20T07:10:59.027Z,1005.64
2018-02-20T07:12:13.517Z,1005.63
2018-02-20T07:13:27.319Z,1005.63
2018-02-20T07:14:41.563Z,1005.65
2018-02-20T07:15:55.581Z,1005.63
2018-02-20T07:17:10.183Z,1005.68
2018-02-20T07:18:24.470Z,1005.61
2018-02-20T07:19:38.522Z,1005.6
2018-02-20T07:20:52.780Z,1005.62
2018-02-20T07:22:06.523Z,1005.61
2018-02-20T07:23:21.109Z,1005.59
2018-02-20T07:24:34.901Z,1005.58
2018-02-20T07:25:48.919Z,1005.55
2018-02-20T07:27:03.410Z,1005.54
2018-02-20T07:28:17.747Z,1005.54
2018-02-20T07:29:32.338Z,1005.61
2018-02-20T07:30:47.009Z,1005.66
2018-02-20T07:32:01.270Z,1005.66
2018-02-20T07:33:16.027Z,1005.67
2018-02-20T07:34:29.812Z,1005.65
2018-02-20T07:35:44.623Z,1005.68
2018-02-20T07:36:58.940Z,1005.67
2018-02-20T07:38:13.432Z,1005.69
2018-02-20T07:39:28.273Z,1005.69
2018-02-20T07:40:42.820Z,1005.69
2018-02-20T07:41:57.241Z,1005.69
2018-02-20T07:43:11.486Z,1005.7
2018-02-20T07:44:25.245Z,1005.63
2018-02-20T07:45:39.516Z,1005.63
2018-02-20T07:46:54.047Z,1005.66
2018-02-20T07:48:08.144Z,1005.7
2018-02-20T07:49:22.506Z,1005.65
2018-02-20T07:50:36.317Z,1005.69
2018-02-20T07:51:51.101Z,1005.68
2018-02-20T07:53:04.894Z,1005.65
2018-02-20T07:54:19.937Z,1005.73
2018-02-20T07:55:34.528Z,1005.68
2018-02-20T07:56:48.771Z,1005.74
2018-02-20T07:58:03.029Z,1005.71
2018-02-20T07:59:17.134Z,1005.71
2018-02-20T08:00:31.411Z,1005.75
2018-02-20T08:01:45.929Z,1005.7
2018-02-20T08:03:00.230Z,1005.77
2018-02-20T08:04:14.845Z,1005.75
2018-02-20T08:05:29.180Z,1005.79
2018-02-20T08:06:44.027Z,1005.8
2018-02-20T08:07:58.314Z,1005.89
2018-02-20T08:09:12.553Z,1005.9
2018-02-20T08:10:26.843Z,1005.87
2018-02-20T08:11:40.420Z,1005.83
2018-02-20T08:12:54.960Z,1005.85
2018-02-20T08:14:09.232Z,1005.83
2018-02-20T08:15:22.756Z,1005.84
2018-02-20T08:16:37.030Z,1005.82
2018-02-20T08:17:51.271Z,1005.78
2018-02-20T08:19:06.063Z,1005.79
2018-02-20T08:20:20.315Z,1005.77
2018-02-20T08:21:34.609Z,1005.7
2018-02-20T08:22:48.860Z,1005.75
2018-02-20T08:24:03.405Z,1005.75
2018-02-20T08:25:17.829Z,1005.69
2018-02-20T08:26:32.067Z,1005.71
2018-02-20T08:27:45.618Z,1005.69
2018-02-20T08:29:00.152Z,1005.68
2018-02-20T08:30:14.403Z,1005.7
2018-02-20T08:31:28.712Z,1005.65
2018-02-20T08:32:43.027Z,1005.65
2018-02-20T08:33:57.257Z,1005.67
2018-02-20T08:35:11.777Z,1005.6
2018-02-20T08:36:25.812Z,1005.63
2018-02-20T08:37:40.721Z,1005.62
2018-02-20T08:38:54.960Z,1005.67
2018-02-20T08:40:09.242Z,1005.68
2018-02-20T08:41:23.552Z,1005.67
2018-02-20T08:42:38.287Z,1005.67
2018-02-20T08:43:52.799Z,1005.64
2018-02-20T08:45:07.348Z,1005.68
2018-02-20T08:46:21.176Z,1005.65
2018-02-20T08:47:35.250Z,1005.66
2018-02-20T08:48:49.545Z,1005.6
2018-02-20T08:50:04.395Z,1005.66
2018-02-20T08:51:18.447Z,1005.64
2018-02-20T08:52:32.759Z,1005.64
2018-02-20T08:53:46.878Z,1005.65
2018-02-20T08:55:01.198Z,1005.66
2018-02-20T08:56:15.608Z,1005.62
2018-02-20T08:57:29.960Z,1005.66
2018-02-20T08:58:43.504Z,1005.63
2018-02-20T08:59:57.797Z,1005.6
2018-02-20T09:01:11.907Z,1005.59
2018-02-20T09:02:26.261Z,1005.63
2018-02-20T09:03:40.053Z,1005.62
2018-02-20T09:04:54.313Z,1005.58
2018-02-20T09:06:08.592Z,1005.59
2018-02-20T09:07:23.317Z,1005.56
2018-02-20T09:08:37.925Z,1005.59
2018-02-20T09:09:52.004Z,1005.54
2018-02-20T09:11:05.884Z,1005.5
2018-02-20T09:12:20.441Z,1005.55
2018-02-20T09:13:34.433Z,1005.54
2018-02-20T09:14:48.510Z,1005.49
2018-02-20T09:16:03.102Z,1005.51
2018-02-20T09:17:17.114Z,1005.56
2018-02-20T09:28:52.710Z,1005.53
2018-02-20T09:30:06.519Z,1005.49
2018-02-20T09:31:20.821Z,1005.47
2018-02-20T09:32:34.629Z,1005.47
2018-02-20T09:33:48.895Z,1005.52
2018-02-20T09:35:03.436Z,1005.53
2018-02-20T09:36:17.960Z,1005.54
2018-02-20T09:37:32.458Z,1005.49
2018-02-20T09:38:46.759Z,1005.51
2018-02-20T09:40:00.527Z,1005.48
2018-02-20T09:41:15.032Z,1005.45
2018-02-20T09:42:29.327Z,1005.47
2018-02-20T09:43:43.194Z,1005.46
2018-02-20T09:44:56.968Z,1005.46
2018-02-20T09:46:11.762Z,1005.45
2018-02-20T09:47:26.906Z,1005.43
2018-02-20T09:48:40.939Z,1005.39
2018-02-20T09:49:55.193Z,1005.41
2018-02-20T09:51:09.709Z,1005.36
2018-02-20T09:52:24.343Z,1005.36
2018-02-20T09:53:38.442Z,1005.32
2018-02-20T09:54:52.820Z,1005.39
2018-02-20T09:56:07.358Z,1005.45
2018-02-20T09:57:21.649Z,1005.46
2018-02-20T09:58:35.161Z,1005.49
2018-02-20T09:59:48.933Z,1005.48
2018-02-20T10:01:03.021Z,1005.43
2018-02-20T10:02:17.071Z,1005.5
2018-02-20T10:03:31.387Z,1005.49
2018-02-20T10:04:45.187Z,1005.49
2018-02-20T10:06:00.004Z,1005.49
2018-02-20T10:07:13.886Z,1005.51
2018-02-20T10:08:28.147Z,1005.56
2018-02-20T10:09:42.876Z,1005.52
2018-02-20T10:10:57.142Z,1005.53
2018-02-20T10:12:11.759Z,1005.49
2018-02-20T10:13:25.677Z,1005.55
2018-02-20T10:14:40.424Z,1005.56
2018-02-20T10:15:54.700Z,1005.52
2018-02-20T10:17:09.575Z,1005.53
2018-02-20T10:18:23.893Z,1005.56
2018-02-20T10:19:38.151Z,1005.57
2018-02-20T10:20:51.950Z,1005.5
2018-02-20T10:22:06.006Z,1005.56
2018-02-20T10:23:20.570Z,1005.54
2018-02-20T10:24:35.391Z,1005.53
2018-02-20T10:25:48.949Z,1005.52
2018-02-20T10:27:02.800Z,1005.55
2018-02-20T10:28:17.105Z,1005.65
2018-02-20T10:29:31.644Z,1005.63
2018-02-20T10:30:46.487Z,1005.6
2018-02-20T10:32:01.044Z,1005.59
2018-02-20T10:33:15.393Z,1005.65
2018-02-20T10:34:30.018Z,1005.59
2018-02-20T10:35:44.865Z,1005.68
2018-02-20T10:36:59.252Z,1005.67
2018-02-20T10:38:13.514Z,1005.67
2018-02-20T10:39:27.047Z,1005.72
2018-02-20T10:40:41.395Z,1005.63
2018-02-20T10:41:56.018Z,1005.7
2018-02-20T10:43:10.946Z,1005.73
2018-02-20T10:44:25.306Z,1005.7
2018-02-20T10:45:39.253Z,1005.66
2018-02-20T10:46:53.360Z,1005.62
2018-02-20T10:48:07.705Z,1005.61
2018-02-20T10:49:21.612Z,1005.7
2018-02-20T10:50:36.455Z,1005.67
2018-02-20T10:51:50.998Z,1005.69
2018-02-20T10:53:05.315Z,1005.64
2018-02-20T10:54:19.630Z,1005.63
2018-02-20T10:55:34.372Z,1005.62
2018-02-20T10:56:49.347Z,1005.65
2018-02-20T10:58:03.791Z,1005.62
2018-02-20T10:59:18.574Z,1005.65
2018-02-20T11:00:33.093Z,1005.61
2018-02-20T11:01:47.782Z,1005.64
2018-02-20T11:03:01.834Z,1005.64
2018-02-20T11:04:16.439Z,1005.62
2018-02-20T11:05:30.761Z,1005.57
2018-02-20T11:06:44.846Z,1005.6
2018-02-20T11:07:59.439Z,1005.57
2018-02-20T11:09:13.991Z,1005.58
2018-02-20T11:10:28.766Z,1005.61
2018-02-20T11:11:42.803Z,1005.58
2018-02-20T11:12:57.069Z,1005.64
2018-02-20T11:14:12.203Z,1005.6
2018-02-20T11:15:26.024Z,1005.52
2018-02-20T11:16:40.349Z,1005.54
2018-02-20T11:17:55.018Z,1005.55
2018-02-20T11:19:09.666Z,1005.52
2018-02-20T11:20:24.148Z,1005.45
2018-02-20T11:21:38.435Z,1005.5
2018-02-20T11:22:52.716Z,1005.41
2018-02-20T11:24:06.993Z,1005.47
2018-02-20T11:25:21.203Z,1005.51
2018-02-20T11:26:35.282Z,1005.49
2018-02-20T11:27:49.062Z,1005.48
2018-02-20T11:29:03.098Z,1005.43
2018-02-20T11:30:17.417Z,1005.44
2018-02-20T11:31:31.246Z,1005.45
2018-02-20T11:32:45.585Z,1005.39
2018-02-20T11:33:59.932Z,1005.43
2018-02-20T11:35:14.665Z,1005.43
2018-02-20T11:36:29.207Z,1005.47
2018-02-20T11:37:43.491Z,1005.45
2018-02-20T11:39:12.481Z,1005.47
2018-02-20T11:40:27.055Z,1005.47
2018-02-20T11:41:40.874Z,1005.43
2018-02-20T11:42:55.220Z,1005.38
2018-02-20T11:44:09.135Z,1005.37
2018-02-20T11:45:23.703Z,1005.33
2018-02-20T11:46:37.850Z,1005.42
2018-02-20T11:47:51.927Z,1005.35
2018-02-20T11:49:06.369Z,1005.39
2018-02-20T11:50:21.141Z,1005.44
2018-02-20T11:51:35.922Z,1005.37
2018-02-20T11:52:50.280Z,1005.38
2018-02-20T11:54:04.335Z,1005.4
2018-02-20T11:55:18.424Z,1005.4
2018-02-20T11:56:32.842Z,1005.35
2018-02-20T11:57:46.915Z,1005.33
2018-02-20T11:59:01.481Z,1005.39
2018-02-20T12:00:16.313Z,1005.42
2018-02-20T12:01:30.623Z,1005.33
2018-02-20T12:02:44.963Z,1005.38
2018-02-20T12:03:59.469Z,1005.39
2018-02-20T12:05:14.006Z,1005.33
2018-02-20T12:06:28.267Z,1005.37
2018-02-20T12:07:42.586Z,1005.44
2018-02-20T12:08:57.432Z,1005.36
2018-02-20T12:10:12.033Z,1005.36
2018-02-20T12:11:26.131Z,1005.39
2018-02-20T12:12:40.408Z,1005.37
2018-02-20T12:13:55.033Z,1005.32
2018-02-20T12:15:09.538Z,1005.38
2018-02-20T12:16:23.966Z,1005.35
2018-02-20T12:17:38.321Z,1005.36
2018-02-20T12:18:51.952Z,1005.33
2018-02-20T12:20:05.841Z,1005.35
2018-02-20T12:21:20.578Z,1005.31
2018-02-20T12:22:34.466Z,1005.35
2018-02-20T12:23:48.846Z,1005.28
2018-02-20T12:25:03.681Z,1005.29
2018-02-20T12:26:17.283Z,1005.29
2018-02-20T12:27:31.853Z,1005.31
2018-02-20T12:28:45.921Z,1005.33
2018-02-20T12:29:59.836Z,1005.39
2018-02-20T12:31:13.785Z,1005.31
2018-02-20T12:32:28.084Z,1005.32
2018-02-20T12:33:43.018Z,1005.29
2018-02-20T12:34:57.684Z,1005.28
2018-02-20T12:36:11.770Z,1005.25
2018-02-20T12:37:26.361Z,1005.28
2018-02-20T12:38:40.689Z,1005.27
2018-02-20T12:39:55.573Z,1005.26
2018-02-20T12:41:10.313Z,1005.21
2018-02-20T12:42:24.753Z,1005.27
2018-02-20T12:43:38.948Z,1005.25
2018-02-20T12:44:53.193Z,1005.23
2018-02-20T12:46:08.046Z,1005.26
2018-02-20T12:47:22.613Z,1005.22
2018-02-20T12:48:37.036Z,1005.3
2018-02-20T12:49:52.575Z,1005.25
2018-02-20T12:51:06.990Z,1005.23
2018-02-20T12:52:21.954Z,1005.24
2018-02-20T12:53:37.077Z,1005.18
2018-02-20T12:54:52.248Z,1005.18
2018-02-20T12:56:06.305Z,1005.2
2018-02-20T12:57:20.746Z,1005.23
2018-02-20T12:58:34.602Z,1005.2
2018-02-20T12:59:48.715Z,1005.14
2018-02-20T13:01:03.282Z,1005.11
2018-02-20T13:02:18.424Z,1005.16
2018-02-20T13:03:33.182Z,1005.18
2018-02-20T13:04:47.868Z,1005.18
2018-02-20T13:06:03.072Z,1005.13
2018-02-20T13:07:17.510Z,1005.17
2018-02-20T13:08:31.465Z,1005.08
2018-02-20T13:09:46.681Z,1005.09
2018-02-20T13:11:03.579Z,1005.09
2018-02-20T13:12:19.151Z,1005.1
2018-02-20T13:13:34.151Z,1005.06
2018-02-20T13:14:48.902Z,1005.04
2018-02-20T13:16:03.699Z,1005.05
2018-02-20T13:17:19.111Z,1005.04
2018-02-20T13:18:33.587Z,1005.09
2018-02-20T13:19:46.996Z,1005.03
2018-02-20T13:21:01.179Z,1005.13
2018-02-20T13:22:15.566Z,1005.14
2018-02-20T13:23:29.651Z,1005.25
2018-02-20T13:24:44.532Z,1005.21
2018-02-20T13:25:59.524Z,1005.14
2018-02-20T13:27:14.420Z,1005.19
2018-02-20T13:28:29.053Z,1005.08
2018-02-20T13:29:43.684Z,1005.05
2018-02-20T13:30:57.269Z,1005.08
2018-02-20T13:32:11.344Z,1005.07
2018-02-20T13:33:25.740Z,1005.04
2018-02-20T13:34:40.209Z,1005.1
2018-02-20T13:35:54.702Z,1005.12
2018-02-20T13:37:09.412Z,1005.03
2018-02-20T13:38:24.168Z,1005.04
2018-02-20T13:39:38.459Z,1005.04
2018-02-20T13:42:22.311Z,1005.04
2018-02-20T13:43:36.593Z,1005.01
2018-02-20T13:44:51.351Z,1005.12
2018-02-20T13:46:05.612Z,1005.07
2018-02-20T13:47:20.196Z,1005.08
2018-02-20T13:48:35.322Z,1005.01
2018-02-20T13:49:50.195Z,1005.14
2018-02-20T13:51:04.748Z,1005.09
2018-02-20T13:52:18.059Z,1005.09
2018-02-20T13:53:32.484Z,1005.18
2018-02-20T13:54:46.891Z,1005.06
2018-02-20T13:56:00.712Z,1005.05
2018-02-20T13:57:15.679Z,1005.11
2018-02-20T13:58:29.961Z,1005.15
2018-02-20T13:59:44.418Z,1005.15
2018-02-20T14:00:59.734Z,1005.08
2018-02-20T14:02:14.259Z,1005.12
2018-02-20T14:03:28.308Z,1005.13
2018-02-20T14:04:43.026Z,1005.07
2018-02-20T14:05:57.096Z,1005.15
2018-02-20T14:07:12.199Z,1005.08
2018-02-20T14:08:26.991Z,1005.12
2018-02-20T14:09:41.543Z,1005.12
2018-02-20T14:10:55.620Z,1005.16
2018-02-20T14:12:09.712Z,1005.13
2018-02-20T14:13:24.061Z,1005.21
2018-02-20T14:14:37.597Z,1005.25
2018-02-20T14:15:51.887Z,1005.26
2018-02-20T14:17:06.191Z,1005.22
2018-02-20T14:18:20.548Z,1005.17
2018-02-20T14:19:35.255Z,1005.26
2018-02-20T14:20:50.154Z,1005.16
2018-02-20T14:22:04.782Z,1005.15
2018-02-20T14:23:19.674Z,1005.14
2018-02-20T14:24:34.026Z,1005.12
2018-02-20T14:25:48.398Z,1005.11
2018-02-20T14:27:02.826Z,1005.17
2018-02-20T14:28:16.848Z,1005.19
2018-02-20T14:29:30.913Z,1005.11
2018-02-20T14:30:45.204Z,1005.2
2018-02-20T14:31:59.830Z,1005.18
2018-02-20T14:33:14.418Z,1005.15
2018-02-20T14:34:28.971Z,1005.23
2018-02-20T14:35:43.311Z,1005.21
2018-02-20T14:36:57.453Z,1005.24
2018-02-20T14:38:12.213Z,1005.17
2018-02-20T14:39:26.562Z,1005.16
2018-02-20T14:40:41.208Z,1005.09
2018-02-20T14:41:56.955Z,1005.2
2018-02-20T14:43:11.465Z,1005.13
2018-02-20T14:44:26.131Z,1005.23
2018-02-20T14:45:40.290Z,1005.15
2018-02-20T14:46:54.955Z,1005.15
2018-02-20T14:48:09.746Z,1005.14
2018-02-20T14:49:24.010Z,1005.19
2018-02-20T14:50:38.906Z,1005.1
2018-02-20T14:51:53.393Z,1005.18
2018-02-20T14:53:07.724Z,1005.18
2018-02-20T14:54:21.910Z,1005.15
2018-02-20T14:55:36.257Z,1005.18
2018-02-20T14:56:51.001Z,1005.15
2018-02-20T14:58:05.746Z,1005.18
2018-02-20T14:59:20.423Z,1005.11
2018-02-20T15:00:34.857Z,1005.1
2018-02-20T15:01:49.167Z,1005.26
2018-02-20T15:03:04.169Z,1005.26
2018-02-20T15:04:19.038Z,1005.3
2018-02-20T15:05:33.419Z,1005.17
2018-02-20T15:06:48.675Z,1005.36
2018-02-20T15:08:02.848Z,1005.26
2018-02-20T15:09:17.895Z,1005.2
2018-02-20T15:10:31.995Z,1005.25
2018-02-20T15:11:46.806Z,1005.17
2018-02-20T15:13:01.563Z,1005.13
2018-02-20T15:14:15.840Z,1005.15